sensor_id;sensor_type;location;lat;lon;timestamp;P1;durP1;ratioP1;P2;durP2;ratioP2
58240;SDS011;45058;55.772;38.224;2023-10-31T00:01:24;20.42;;;12.05;;
58240;SDS011;45058;55.772;38.224;2023-10-31T00:03:50;18.37;;;10.87;;
58240;SDS011;45058;55.772;38.224;2023-10-31T00:06:16;19.25;;;10.35;;
58240;SDS011;45058;55.772;38.224;2023-10-31T00:08:42;19.20;;;12.57;;
58240;SDS011;45058;55.772;38.224;2023-10-31T00:11:08;17.50;;;11.52;;
58240;SDS011;45058;55.772;38.224;2023-10-31T00:13:34;14.57;;;10.43;;
58240;SDS011;45058;55.772;38.224;2023-10-31T00:16:00;17.60;;;10.63;;
58240;SDS011;45058;55.772;38.224;2023-10-31T00:18:26;14.93;;;10.20;;
58240;SDS011;45058;55.772;38.224;2023-10-31T00:20:52;20.73;;;11.38;;
58240;SDS011;45058;55.772;38.224;2023-10-31T00:23:18;17.55;;;11.43;;
58240;SDS011;45058;55.772;38.224;2023-10-31T00:26:02;16.50;;;10.20;;
58240;SDS011;45058;55.772;38.224;2023-10-31T00:28:28;18.48;;;10.45;;
58240;SDS011;45058;55.772;38.224;2023-10-31T00:30:54;16.23;;;10.82;;
58240;SDS011;45058;55.772;38.224;2023-10-31T00:33:21;23.90;;;11.93;;
58240;SDS011;45058;55.772;38.224;2023-10-31T00:35:47;12.48;;;9.23;;
58240;SDS011;45058;55.772;38.224;2023-10-31T00:38:13;15.52;;;9.50;;
58240;SDS011;45058;55.772;38.224;2023-10-31T00:40:39;15.88;;;9.43;;
58240;SDS011;45058;55.772;38.224;2023-10-31T00:43:05;15.55;;;10.40;;
58240;SDS011;45058;55.772;38.224;2023-10-31T00:45:31;18.17;;;8.50;;
58240;SDS011;45058;55.772;38.224;2023-10-31T00:47:57;13.00;;;9.20;;
58240;SDS011;45058;55.772;38.224;2023-10-31T00:50:23;15.48;;;9.98;;
58240;SDS011;45058;55.772;38.224;2023-10-31T00:52:49;19.52;;;10.75;;
58240;SDS011;45058;55.772;38.224;2023-10-31T00:55:15;24.20;;;11.50;;
58240;SDS011;45058;55.772;38.224;2023-10-31T00:57:42;16.48;;;9.20;;
58240;SDS011;45058;55.772;38.224;2023-10-31T01:00:08;14.00;;;8.85;;
58240;SDS011;45058;55.772;38.224;2023-10-31T01:02:35;16.33;;;9.88;;
58240;SDS011;45058;55.772;38.224;2023-10-31T01:05:01;15.13;;;8.77;;
58240;SDS011;45058;55.772;38.224;2023-10-31T01:07:31;14.48;;;9.65;;
58240;SDS011;45058;55.772;38.224;2023-10-31T01:09:57;17.73;;;10.40;;
58240;SDS011;45058;55.772;38.224;2023-10-31T01:12:23;16.60;;;10.18;;
58240;SDS011;45058;55.772;38.224;2023-10-31T01:14:49;19.08;;;10.32;;
58240;SDS011;45058;55.772;38.224;2023-10-31T01:17:15;32.13;;;11.95;;
58240;SDS011;45058;55.772;38.224;2023-10-31T01:19:41;251.65;;;20.73;;
58240;SDS011;45058;55.772;38.224;2023-10-31T01:22:09;366.55;;;22.85;;
58240;SDS011;45058;55.772;38.224;2023-10-31T01:24:35;338.85;;;24.20;;
58240;SDS011;45058;55.772;38.224;2023-10-31T01:27:01;98.15;;;11.43;;
58240;SDS011;45058;55.772;38.224;2023-10-31T01:29:27;28.27;;;11.68;;
58240;SDS011;45058;55.772;38.224;2023-10-31T01:31:53;339.63;;;18.85;;
58240;SDS011;45058;55.772;38.224;2023-10-31T01:34:20;397.38;;;23.60;;
58240;SDS011;45058;55.772;38.224;2023-10-31T01:36:46;15.82;;;10.00;;
58240;SDS011;45058;55.772;38.224;2023-10-31T01:39:12;21.70;;;11.23;;
58240;SDS011;45058;55.772;38.224;2023-10-31T01:41:40;99.68;;;13.05;;
58240;SDS011;45058;55.772;38.224;2023-10-31T01:44:07;65.47;;;15.23;;
58240;SDS011;45058;55.772;38.224;2023-10-31T01:46:33;132.68;;;11.32;;
58240;SDS011;45058;55.772;38.224;2023-10-31T01:48:59;16.88;;;9.30;;
58240;SDS011;45058;55.772;38.224;2023-10-31T01:51:25;19.13;;;10.52;;
58240;SDS011;45058;55.772;38.224;2023-10-31T01:53:52;17.65;;;7.75;;
58240;SDS011;45058;55.772;38.224;2023-10-31T01:56:18;25.45;;;11.52;;
58240;SDS011;45058;55.772;38.224;2023-10-31T01:58:45;11.68;;;8.73;;
58240;SDS011;45058;55.772;38.224;2023-10-31T02:01:12;20.90;;;10.77;;
58240;SDS011;45058;55.772;38.224;2023-10-31T02:03:39;27.15;;;12.48;;
58240;SDS011;45058;55.772;38.224;2023-10-31T02:06:05;31.10;;;11.32;;
58240;SDS011;45058;55.772;38.224;2023-10-31T02:08:31;23.80;;;10.38;;
58240;SDS011;45058;55.772;38.224;2023-10-31T02:10:57;37.70;;;14.32;;
58240;SDS011;45058;55.772;38.224;2023-10-31T02:13:23;37.25;;;14.85;;
58240;SDS011;45058;55.772;38.224;2023-10-31T02:15:49;460.80;;;33.67;;
58240;SDS011;45058;55.772;38.224;2023-10-31T02:18:15;41.30;;;12.23;;
58240;SDS011;45058;55.772;38.224;2023-10-31T02:21:01;27.48;;;11.52;;
58240;SDS011;45058;55.772;38.224;2023-10-31T02:23:28;65.70;;;13.48;;
58240;SDS011;45058;55.772;38.224;2023-10-31T02:25:54;83.95;;;15.93;;
58240;SDS011;45058;55.772;38.224;2023-10-31T02:28:23;21.65;;;10.73;;
58240;SDS011;45058;55.772;38.224;2023-10-31T02:30:53;287.65;;;21.20;;
58240;SDS011;45058;55.772;38.224;2023-10-31T02:33:20;392.58;;;28.25;;
58240;SDS011;45058;55.772;38.224;2023-10-31T02:35:46;485.50;;;34.85;;
58240;SDS011;45058;55.772;38.224;2023-10-31T02:38:13;174.65;;;21.40;;
58240;SDS011;45058;55.772;38.224;2023-10-31T02:40:39;95.60;;;11.88;;
58240;SDS011;45058;55.772;38.224;2023-10-31T02:43:05;323.55;;;26.08;;
58240;SDS011;45058;55.772;38.224;2023-10-31T02:45:32;115.35;;;13.00;;
58240;SDS011;45058;55.772;38.224;2023-10-31T02:48:00;65.60;;;11.90;;
58240;SDS011;45058;55.772;38.224;2023-10-31T02:50:28;28.38;;;9.02;;
58240;SDS011;45058;55.772;38.224;2023-10-31T02:52:54;29.08;;;11.50;;
58240;SDS011;45058;55.772;38.224;2023-10-31T02:55:21;30.63;;;12.60;;
58240;SDS011;45058;55.772;38.224;2023-10-31T02:57:47;17.40;;;9.25;;
58240;SDS011;45058;55.772;38.224;2023-10-31T03:00:13;13.27;;;9.25;;
58240;SDS011;45058;55.772;38.224;2023-10-31T03:02:39;14.73;;;8.80;;
58240;SDS011;45058;55.772;38.224;2023-10-31T03:05:06;16.38;;;8.32;;
58240;SDS011;45058;55.772;38.224;2023-10-31T03:07:32;28.80;;;8.93;;
58240;SDS011;45058;55.772;38.224;2023-10-31T03:09:58;22.48;;;11.00;;
58240;SDS011;45058;55.772;38.224;2023-10-31T03:12:24;141.70;;;12.48;;
58240;SDS011;45058;55.772;38.224;2023-10-31T03:14:50;302.92;;;19.38;;
58240;SDS011;45058;55.772;38.224;2023-10-31T03:17:16;339.17;;;17.65;;
58240;SDS011;45058;55.772;38.224;2023-10-31T03:19:44;473.67;;;19.38;;
58240;SDS011;45058;55.772;38.224;2023-10-31T03:22:10;290.95;;;14.98;;
58240;SDS011;45058;55.772;38.224;2023-10-31T03:24:36;360.55;;;15.23;;
58240;SDS011;45058;55.772;38.224;2023-10-31T03:27:02;708.40;;;29.98;;
58240;SDS011;45058;55.772;38.224;2023-10-31T03:29:30;534.17;;;23.88;;
58240;SDS011;45058;55.772;38.224;2023-10-31T03:31:57;295.45;;;18.67;;
58240;SDS011;45058;55.772;38.224;2023-10-31T03:34:23;267.90;;;17.50;;
58240;SDS011;45058;55.772;38.224;2023-10-31T03:36:49;580.95;;;28.67;;
58240;SDS011;45058;55.772;38.224;2023-10-31T03:39:15;284.13;;;15.70;;
58240;SDS011;45058;55.772;38.224;2023-10-31T03:41:41;260.70;;;13.87;;
58240;SDS011;45058;55.772;38.224;2023-10-31T03:44:08;278.23;;;17.57;;
58240;SDS011;45058;55.772;38.224;2023-10-31T03:46:34;481.37;;;21.00;;
58240;SDS011;45058;55.772;38.224;2023-10-31T03:49:00;607.90;;;30.20;;
58240;SDS011;45058;55.772;38.224;2023-10-31T03:51:26;226.30;;;14.97;;
58240;SDS011;45058;55.772;38.224;2023-10-31T03:53:53;248.53;;;17.73;;
58240;SDS011;45058;55.772;38.224;2023-10-31T03:56:19;424.90;;;21.77;;
58240;SDS011;45058;55.772;38.224;2023-10-31T03:58:45;462.67;;;25.00;;
58240;SDS011;45058;55.772;38.224;2023-10-31T04:01:11;318.57;;;18.13;;
58240;SDS011;45058;55.772;38.224;2023-10-31T04:03:38;280.00;;;18.23;;
58240;SDS011;45058;55.772;38.224;2023-10-31T04:06:05;263.90;;;15.27;;
58240;SDS011;45058;55.772;38.224;2023-10-31T04:08:31;138.50;;;13.33;;
58240;SDS011;45058;55.772;38.224;2023-10-31T04:10:57;408.57;;;28.03;;
58240;SDS011;45058;55.772;38.224;2023-10-31T04:13:23;246.53;;;19.90;;
58240;SDS011;45058;55.772;38.224;2023-10-31T04:15:49;170.87;;;18.10;;
58240;SDS011;45058;55.772;38.224;2023-10-31T04:18:15;206.03;;;20.83;;
58240;SDS011;45058;55.772;38.224;2023-10-31T04:20:42;67.63;;;17.70;;
58240;SDS011;45058;55.772;38.224;2023-10-31T04:23:08;42.97;;;15.07;;
58240;SDS011;45058;55.772;38.224;2023-10-31T04:25:35;16.20;;;10.33;;
58240;SDS011;45058;55.772;38.224;2023-10-31T04:28:01;17.07;;;11.40;;
58240;SDS011;45058;55.772;38.224;2023-10-31T04:30:28;21.53;;;13.07;;
58240;SDS011;45058;55.772;38.224;2023-10-31T04:32:54;20.33;;;12.27;;
58240;SDS011;45058;55.772;38.224;2023-10-31T04:35:25;20.47;;;12.83;;
58240;SDS011;45058;55.772;38.224;2023-10-31T04:37:52;25.70;;;14.43;;
58240;SDS011;45058;55.772;38.224;2023-10-31T04:40:18;20.40;;;12.40;;
58240;SDS011;45058;55.772;38.224;2023-10-31T04:42:46;17.87;;;10.20;;
58240;SDS011;45058;55.772;38.224;2023-10-31T04:45:12;20.63;;;12.77;;
58240;SDS011;45058;55.772;38.224;2023-10-31T04:47:39;16.70;;;10.57;;
58240;SDS011;45058;55.772;38.224;2023-10-31T04:50:05;27.17;;;13.73;;
58240;SDS011;45058;55.772;38.224;2023-10-31T04:52:31;21.63;;;11.73;;
58240;SDS011;45058;55.772;38.224;2023-10-31T04:54:57;16.03;;;9.70;;
58240;SDS011;45058;55.772;38.224;2023-10-31T04:57:24;19.13;;;10.73;;
58240;SDS011;45058;55.772;38.224;2023-10-31T04:59:50;27.27;;;13.03;;
58240;SDS011;45058;55.772;38.224;2023-10-31T05:02:16;24.50;;;11.63;;
58240;SDS011;45058;55.772;38.224;2023-10-31T05:04:42;25.87;;;13.47;;
58240;SDS011;45058;55.772;38.224;2023-10-31T05:07:08;17.87;;;13.00;;
58240;SDS011;45058;55.772;38.224;2023-10-31T05:09:34;18.20;;;12.27;;
58240;SDS011;45058;55.772;38.224;2023-10-31T05:12:01;32.30;;;17.83;;
58240;SDS011;45058;55.772;38.224;2023-10-31T05:14:27;25.87;;;14.20;;
58240;SDS011;45058;55.772;38.224;2023-10-31T05:16:53;25.27;;;14.80;;
58240;SDS011;45058;55.772;38.224;2023-10-31T05:19:18;24.80;;;15.00;;
58240;SDS011;45058;55.772;38.224;2023-10-31T05:21:45;19.57;;;13.93;;
58240;SDS011;45058;55.772;38.224;2023-10-31T05:24:11;33.17;;;16.60;;
58240;SDS011;45058;55.772;38.224;2023-10-31T05:26:36;32.40;;;16.43;;
58240;SDS011;45058;55.772;38.224;2023-10-31T05:29:02;18.80;;;11.43;;
58240;SDS011;45058;55.772;38.224;2023-10-31T05:31:28;27.58;;;15.35;;
58240;SDS011;45058;55.772;38.224;2023-10-31T05:33:55;28.07;;;14.00;;
58240;SDS011;45058;55.772;38.224;2023-10-31T05:36:21;17.70;;;12.95;;
58240;SDS011;45058;55.772;38.224;2023-10-31T05:38:48;20.60;;;12.77;;
58240;SDS011;45058;55.772;38.224;2023-10-31T05:41:15;21.00;;;13.32;;
58240;SDS011;45058;55.772;38.224;2023-10-31T05:43:41;18.83;;;13.43;;
58240;SDS011;45058;55.772;38.224;2023-10-31T05:46:07;24.80;;;13.67;;
58240;SDS011;45058;55.772;38.224;2023-10-31T05:48:38;14.73;;;10.85;;
58240;SDS011;45058;55.772;38.224;2023-10-31T05:51:04;13.60;;;10.40;;
58240;SDS011;45058;55.772;38.224;2023-10-31T05:53:38;18.57;;;11.87;;
58240;SDS011;45058;55.772;38.224;2023-10-31T05:56:04;25.20;;;14.10;;
58240;SDS011;45058;55.772;38.224;2023-10-31T05:58:32;22.10;;;14.73;;
58240;SDS011;45058;55.772;38.224;2023-10-31T06:00:58;25.08;;;16.67;;
58240;SDS011;45058;55.772;38.224;2023-10-31T06:03:25;30.17;;;17.42;;
58240;SDS011;45058;55.772;38.224;2023-10-31T06:05:51;21.00;;;14.38;;
58240;SDS011;45058;55.772;38.224;2023-10-31T06:08:16;16.27;;;12.75;;
58240;SDS011;45058;55.772;38.224;2023-10-31T06:10:42;18.48;;;14.32;;
58240;SDS011;45058;55.772;38.224;2023-10-31T06:13:08;16.45;;;13.00;;
58240;SDS011;45058;55.772;38.224;2023-10-31T06:15:34;17.13;;;14.23;;
58240;SDS011;45058;55.772;38.224;2023-10-31T06:18:00;27.38;;;20.63;;
58240;SDS011;45058;55.772;38.224;2023-10-31T06:20:26;20.73;;;15.13;;
58240;SDS011;45058;55.772;38.224;2023-10-31T06:22:52;23.42;;;15.82;;
58240;SDS011;45058;55.772;38.224;2023-10-31T06:25:18;25.52;;;17.17;;
58240;SDS011;45058;55.772;38.224;2023-10-31T06:27:45;22.38;;;17.40;;
58240;SDS011;45058;55.772;38.224;2023-10-31T06:30:11;24.73;;;18.00;;
58240;SDS011;45058;55.772;38.224;2023-10-31T06:32:38;31.08;;;20.42;;
58240;SDS011;45058;55.772;38.224;2023-10-31T06:35:06;32.72;;;21.58;;
58240;SDS011;45058;55.772;38.224;2023-10-31T06:37:32;28.70;;;21.95;;
58240;SDS011;45058;55.772;38.224;2023-10-31T06:39:58;28.63;;;22.00;;
58240;SDS011;45058;55.772;38.224;2023-10-31T06:42:24;29.38;;;22.10;;
58240;SDS011;45058;55.772;38.224;2023-10-31T06:44:50;33.10;;;22.80;;
58240;SDS011;45058;55.772;38.224;2023-10-31T06:47:16;29.00;;;21.27;;
58240;SDS011;45058;55.772;38.224;2023-10-31T06:49:42;32.50;;;23.58;;
58240;SDS011;45058;55.772;38.224;2023-10-31T06:52:07;29.48;;;22.35;;
58240;SDS011;45058;55.772;38.224;2023-10-31T06:54:34;27.73;;;22.92;;
58240;SDS011;45058;55.772;38.224;2023-10-31T06:57:00;26.45;;;19.42;;
58240;SDS011;45058;55.772;38.224;2023-10-31T06:59:27;24.95;;;20.05;;
58240;SDS011;45058;55.772;38.224;2023-10-31T07:01:54;28.05;;;19.80;;
58240;SDS011;45058;55.772;38.224;2023-10-31T07:04:21;22.88;;;17.85;;
58240;SDS011;45058;55.772;38.224;2023-10-31T07:06:46;73.32;;;47.03;;
58240;SDS011;45058;55.772;38.224;2023-10-31T07:09:12;62.05;;;38.90;;
58240;SDS011;45058;55.772;38.224;2023-10-31T07:11:39;49.00;;;31.65;;
58240;SDS011;45058;55.772;38.224;2023-10-31T07:14:05;50.63;;;34.08;;
58240;SDS011;45058;55.772;38.224;2023-10-31T07:16:31;52.45;;;37.17;;
58240;SDS011;45058;55.772;38.224;2023-10-31T07:18:57;56.17;;;35.40;;
58240;SDS011;45058;55.772;38.224;2023-10-31T07:21:24;40.40;;;27.20;;
58240;SDS011;45058;55.772;38.224;2023-10-31T07:23:51;41.47;;;27.92;;
58240;SDS011;45058;55.772;38.224;2023-10-31T07:26:17;28.58;;;19.63;;
58240;SDS011;45058;55.772;38.224;2023-10-31T07:28:43;31.77;;;19.17;;
58240;SDS011;45058;55.772;38.224;2023-10-31T07:31:09;26.70;;;18.00;;
58240;SDS011;45058;55.772;38.224;2023-10-31T07:33:35;26.17;;;16.33;;
58240;SDS011;45058;55.772;38.224;2023-10-31T07:36:01;23.63;;;15.73;;
58240;SDS011;45058;55.772;38.224;2023-10-31T07:38:27;24.02;;;16.48;;
58240;SDS011;45058;55.772;38.224;2023-10-31T07:40:53;22.92;;;15.60;;
58240;SDS011;45058;55.772;38.224;2023-10-31T07:43:19;24.60;;;16.17;;
58240;SDS011;45058;55.772;38.224;2023-10-31T07:45:45;22.58;;;15.75;;
58240;SDS011;45058;55.772;38.224;2023-10-31T07:48:11;24.42;;;16.10;;
58240;SDS011;45058;55.772;38.224;2023-10-31T07:50:37;24.25;;;16.70;;
58240;SDS011;45058;55.772;38.224;2023-10-31T07:53:03;26.58;;;17.52;;
58240;SDS011;45058;55.772;38.224;2023-10-31T07:55:29;30.85;;;19.02;;
58240;SDS011;45058;55.772;38.224;2023-10-31T07:57:55;26.00;;;19.30;;
58240;SDS011;45058;55.772;38.224;2023-10-31T08:00:21;35.42;;;19.65;;
58240;SDS011;45058;55.772;38.224;2023-10-31T08:02:47;30.63;;;20.75;;
58240;SDS011;45058;55.772;38.224;2023-10-31T08:05:13;30.70;;;19.88;;
58240;SDS011;45058;55.772;38.224;2023-10-31T08:07:39;30.42;;;19.65;;
58240;SDS011;45058;55.772;38.224;2023-10-31T08:10:06;39.50;;;19.38;;
58240;SDS011;45058;55.772;38.224;2023-10-31T08:12:32;31.98;;;19.77;;
58240;SDS011;45058;55.772;38.224;2023-10-31T08:14:58;26.85;;;19.17;;
58240;SDS011;45058;55.772;38.224;2023-10-31T08:17:24;30.45;;;17.48;;
58240;SDS011;45058;55.772;38.224;2023-10-31T08:19:50;27.80;;;16.75;;
58240;SDS011;45058;55.772;38.224;2023-10-31T08:22:16;24.67;;;15.57;;
58240;SDS011;45058;55.772;38.224;2023-10-31T08:24:42;30.92;;;17.48;;
58240;SDS011;45058;55.772;38.224;2023-10-31T08:27:08;22.77;;;16.60;;
58240;SDS011;45058;55.772;38.224;2023-10-31T08:29:34;26.92;;;15.80;;
58240;SDS011;45058;55.772;38.224;2023-10-31T08:32:00;29.02;;;16.25;;
58240;SDS011;45058;55.772;38.224;2023-10-31T08:34:26;28.75;;;17.05;;
58240;SDS011;45058;55.772;38.224;2023-10-31T08:36:52;24.80;;;15.40;;
58240;SDS011;45058;55.772;38.224;2023-10-31T08:39:18;27.83;;;14.98;;
58240;SDS011;45058;55.772;38.224;2023-10-31T08:41:53;26.02;;;15.45;;
58240;SDS011;45058;55.772;38.224;2023-10-31T08:44:20;26.45;;;15.38;;
58240;SDS011;45058;55.772;38.224;2023-10-31T08:46:46;25.48;;;14.57;;
58240;SDS011;45058;55.772;38.224;2023-10-31T08:49:12;26.80;;;14.57;;
58240;SDS011;45058;55.772;38.224;2023-10-31T08:51:39;28.17;;;14.88;;
58240;SDS011;45058;55.772;38.224;2023-10-31T08:54:05;22.10;;;13.75;;
58240;SDS011;45058;55.772;38.224;2023-10-31T08:56:31;26.38;;;14.05;;
58240;SDS011;45058;55.772;38.224;2023-10-31T08:58:57;22.35;;;13.88;;
58240;SDS011;45058;55.772;38.224;2023-10-31T09:01:23;26.67;;;13.90;;
58240;SDS011;45058;55.772;38.224;2023-10-31T09:03:49;22.35;;;11.90;;
58240;SDS011;45058;55.772;38.224;2023-10-31T09:06:15;20.52;;;12.48;;
58240;SDS011;45058;55.772;38.224;2023-10-31T09:08:41;23.65;;;12.20;;
58240;SDS011;45058;55.772;38.224;2023-10-31T09:11:07;21.73;;;12.15;;
58240;SDS011;45058;55.772;38.224;2023-10-31T09:13:33;20.05;;;12.25;;
58240;SDS011;45058;55.772;38.224;2023-10-31T09:15:59;20.08;;;10.30;;
58240;SDS011;45058;55.772;38.224;2023-10-31T09:18:25;23.70;;;10.40;;
58240;SDS011;45058;55.772;38.224;2023-10-31T09:20:52;19.00;;;10.18;;
58240;SDS011;45058;55.772;38.224;2023-10-31T09:23:18;21.50;;;9.73;;
58240;SDS011;45058;55.772;38.224;2023-10-31T09:25:44;15.10;;;9.23;;
58240;SDS011;45058;55.772;38.224;2023-10-31T09:28:10;25.40;;;11.35;;
58240;SDS011;45058;55.772;38.224;2023-10-31T09:30:36;23.20;;;10.52;;
58240;SDS011;45058;55.772;38.224;2023-10-31T09:33:02;22.63;;;10.82;;
58240;SDS011;45058;55.772;38.224;2023-10-31T09:35:28;19.25;;;11.20;;
58240;SDS011;45058;55.772;38.224;2023-10-31T09:37:54;25.40;;;12.02;;
58240;SDS011;45058;55.772;38.224;2023-10-31T09:40:21;24.63;;;13.13;;
58240;SDS011;45058;55.772;38.224;2023-10-31T09:42:47;26.13;;;13.68;;
58240;SDS011;45058;55.772;38.224;2023-10-31T09:45:14;22.52;;;13.48;;
58240;SDS011;45058;55.772;38.224;2023-10-31T09:47:40;21.80;;;13.00;;
58240;SDS011;45058;55.772;38.224;2023-10-31T09:50:08;27.08;;;14.75;;
58240;SDS011;45058;55.772;38.224;2023-10-31T09:52:38;30.25;;;14.90;;
58240;SDS011;45058;55.772;38.224;2023-10-31T09:55:04;29.77;;;16.27;;
58240;SDS011;45058;55.772;38.224;2023-10-31T09:57:31;30.70;;;16.05;;
58240;SDS011;45058;55.772;38.224;2023-10-31T09:59:57;26.27;;;15.52;;
58240;SDS011;45058;55.772;38.224;2023-10-31T10:02:24;22.65;;;14.93;;
58240;SDS011;45058;55.772;38.224;2023-10-31T10:04:50;25.45;;;15.68;;
58240;SDS011;45058;55.772;38.224;2023-10-31T10:07:17;35.63;;;16.65;;
58240;SDS011;45058;55.772;38.224;2023-10-31T10:09:44;28.10;;;15.48;;
58240;SDS011;45058;55.772;38.224;2023-10-31T10:12:12;29.15;;;16.08;;
58240;SDS011;45058;55.772;38.224;2023-10-31T10:14:39;25.02;;;15.90;;
58240;SDS011;45058;55.772;38.224;2023-10-31T10:17:15;30.40;;;18.02;;
58240;SDS011;45058;55.772;38.224;2023-10-31T10:20:07;28.05;;;18.80;;
58240;SDS011;45058;55.772;38.224;2023-10-31T10:22:39;26.85;;;18.80;;
58240;SDS011;45058;55.772;38.224;2023-10-31T10:25:08;31.75;;;20.08;;
58240;SDS011;45058;55.772;38.224;2023-10-31T10:27:46;29.50;;;20.15;;
58240;SDS011;45058;55.772;38.224;2023-10-31T10:30:13;34.80;;;22.85;;
58240;SDS011;45058;55.772;38.224;2023-10-31T10:32:40;37.25;;;25.05;;
58240;SDS011;45058;55.772;38.224;2023-10-31T10:35:07;39.25;;;26.73;;
58240;SDS011;45058;55.772;38.224;2023-10-31T10:37:35;41.53;;;27.73;;
58240;SDS011;45058;55.772;38.224;2023-10-31T10:40:03;31.85;;;25.02;;
58240;SDS011;45058;55.772;38.224;2023-10-31T10:42:32;36.80;;;28.92;;
58240;SDS011;45058;55.772;38.224;2023-10-31T10:45:01;39.13;;;27.85;;
58240;SDS011;45058;55.772;38.224;2023-10-31T10:47:32;42.55;;;26.88;;
58240;SDS011;45058;55.772;38.224;2023-10-31T10:49:59;33.63;;;25.15;;
58240;SDS011;45058;55.772;38.224;2023-10-31T10:52:38;37.42;;;25.23;;
58240;SDS011;45058;55.772;38.224;2023-10-31T10:55:12;33.75;;;26.30;;
58240;SDS011;45058;55.772;38.224;2023-10-31T10:57:42;39.33;;;28.25;;
58240;SDS011;45058;55.772;38.224;2023-10-31T11:00:14;36.13;;;27.10;;
58240;SDS011;45058;55.772;38.224;2023-10-31T11:02:40;38.05;;;25.90;;
58240;SDS011;45058;55.772;38.224;2023-10-31T11:05:08;39.67;;;27.75;;
58240;SDS011;45058;55.772;38.224;2023-10-31T11:07:35;48.40;;;25.85;;
58240;SDS011;45058;55.772;38.224;2023-10-31T11:10:02;39.33;;;27.13;;
58240;SDS011;45058;55.772;38.224;2023-10-31T11:12:30;36.72;;;23.38;;
58240;SDS011;45058;55.772;38.224;2023-10-31T11:14:57;32.63;;;23.42;;
58240;SDS011;45058;55.772;38.224;2023-10-31T11:17:29;33.88;;;24.10;;
58240;SDS011;45058;55.772;38.224;2023-10-31T11:20:00;48.17;;;20.65;;
58240;SDS011;45058;55.772;38.224;2023-10-31T11:22:38;43.42;;;19.52;;
58240;SDS011;45058;55.772;38.224;2023-10-31T11:25:09;58.38;;;21.23;;
58240;SDS011;45058;55.772;38.224;2023-10-31T11:27:36;91.10;;;19.88;;
58240;SDS011;45058;55.772;38.224;2023-10-31T11:30:48;65.07;;;20.05;;
58240;SDS011;45058;55.772;38.224;2023-10-31T11:32:55;46.03;;;18.88;;
58240;SDS011;45058;55.772;38.224;2023-10-31T11:35:24;48.60;;;21.58;;
58240;SDS011;45058;55.772;38.224;2023-10-31T11:38:00;32.38;;;20.40;;
58240;SDS011;45058;55.772;38.224;2023-10-31T11:40:29;38.22;;;20.42;;
58240;SDS011;45058;55.772;38.224;2023-10-31T11:43:01;63.30;;;22.02;;
58240;SDS011;45058;55.772;38.224;2023-10-31T11:45:41;69.88;;;22.30;;
58240;SDS011;45058;55.772;38.224;2023-10-31T11:48:12;71.80;;;21.92;;
58240;SDS011;45058;55.772;38.224;2023-10-31T11:50:39;69.63;;;23.08;;
58240;SDS011;45058;55.772;38.224;2023-10-31T11:55:45;68.18;;;21.40;;
58240;SDS011;45058;55.772;38.224;2023-10-31T11:58:24;46.28;;;19.83;;
58240;SDS011;45058;55.772;38.224;2023-10-31T12:01:02;90.82;;;21.35;;
58240;SDS011;45058;55.772;38.224;2023-10-31T12:03:42;65.03;;;20.50;;
58240;SDS011;45058;55.772;38.224;2023-10-31T12:06:13;126.32;;;21.05;;
58240;SDS011;45058;55.772;38.224;2023-10-31T12:08:40;247.80;;;23.35;;
58240;SDS011;45058;55.772;38.224;2023-10-31T12:11:08;224.02;;;25.90;;
58240;SDS011;45058;55.772;38.224;2023-10-31T12:13:38;125.57;;;22.40;;
58240;SDS011;45058;55.772;38.224;2023-10-31T12:16:05;149.25;;;22.90;;
58240;SDS011;45058;55.772;38.224;2023-10-31T12:18:33;138.15;;;24.02;;
58240;SDS011;45058;55.772;38.224;2023-10-31T12:21:00;157.75;;;25.25;;
58240;SDS011;45058;55.772;38.224;2023-10-31T12:23:26;155.77;;;25.30;;
58240;SDS011;45058;55.772;38.224;2023-10-31T12:25:53;105.45;;;24.95;;
58240;SDS011;45058;55.772;38.224;2023-10-31T12:28:20;208.48;;;26.80;;
58240;SDS011;45058;55.772;38.224;2023-10-31T12:30:47;199.30;;;26.35;;
58240;SDS011;45058;55.772;38.224;2023-10-31T12:33:15;159.65;;;26.70;;
58240;SDS011;45058;55.772;38.224;2023-10-31T12:35:42;194.02;;;28.58;;
58240;SDS011;45058;55.772;38.224;2023-10-31T12:38:11;142.35;;;26.45;;
58240;SDS011;45058;55.772;38.224;2023-10-31T12:40:38;139.48;;;26.63;;
58240;SDS011;45058;55.772;38.224;2023-10-31T12:43:06;194.32;;;27.15;;
58240;SDS011;45058;55.772;38.224;2023-10-31T12:45:32;118.13;;;25.42;;
58240;SDS011;45058;55.772;38.224;2023-10-31T12:48:05;104.72;;;26.88;;
58240;SDS011;45058;55.772;38.224;2023-10-31T12:50:37;82.47;;;24.98;;
58240;SDS011;45058;55.772;38.224;2023-10-31T12:53:04;116.00;;;24.73;;
58240;SDS011;45058;55.772;38.224;2023-10-31T12:55:36;151.95;;;26.30;;
58240;SDS011;45058;55.772;38.224;2023-10-31T12:58:06;159.57;;;26.85;;
58240;SDS011;45058;55.772;38.224;2023-10-31T13:00:36;200.15;;;28.38;;
58240;SDS011;45058;55.772;38.224;2023-10-31T13:03:06;250.70;;;32.13;;
58240;SDS011;45058;55.772;38.224;2023-10-31T13:05:37;136.73;;;28.35;;
58240;SDS011;45058;55.772;38.224;2023-10-31T13:08:15;226.40;;;35.13;;
58240;SDS011;45058;55.772;38.224;2023-10-31T13:10:42;308.95;;;33.80;;
58240;SDS011;45058;55.772;38.224;2023-10-31T13:13:08;292.45;;;38.15;;
58240;SDS011;45058;55.772;38.224;2023-10-31T13:15:34;230.85;;;36.30;;
58240;SDS011;45058;55.772;38.224;2023-10-31T13:18:02;311.73;;;39.72;;
58240;SDS011;45058;55.772;38.224;2023-10-31T13:20:28;339.02;;;43.75;;
58240;SDS011;45058;55.772;38.224;2023-10-31T13:22:54;312.48;;;42.75;;
58240;SDS011;45058;55.772;38.224;2023-10-31T13:25:20;296.95;;;43.75;;
58240;SDS011;45058;55.772;38.224;2023-10-31T13:27:46;238.45;;;38.97;;
58240;SDS011;45058;55.772;38.224;2023-10-31T13:30:16;223.10;;;37.25;;
58240;SDS011;45058;55.772;38.224;2023-10-31T13:32:43;222.85;;;42.13;;
58240;SDS011;45058;55.772;38.224;2023-10-31T13:35:09;214.77;;;38.60;;
58240;SDS011;45058;55.772;38.224;2023-10-31T13:37:36;219.65;;;33.90;;
58240;SDS011;45058;55.772;38.224;2023-10-31T13:40:02;167.50;;;34.88;;
58240;SDS011;45058;55.772;38.224;2023-10-31T13:42:29;190.85;;;39.50;;
58240;SDS011;45058;55.772;38.224;2023-10-31T13:44:56;217.40;;;36.60;;
58240;SDS011;45058;55.772;38.224;2023-10-31T13:47:22;193.60;;;35.53;;
58240;SDS011;45058;55.772;38.224;2023-10-31T13:49:48;215.45;;;34.78;;
58240;SDS011;45058;55.772;38.224;2023-10-31T13:52:14;187.85;;;34.60;;
58240;SDS011;45058;55.772;38.224;2023-10-31T13:54:42;205.95;;;33.40;;
58240;SDS011;45058;55.772;38.224;2023-10-31T13:57:09;213.02;;;37.83;;
58240;SDS011;45058;55.772;38.224;2023-10-31T13:59:34;206.85;;;37.60;;
58240;SDS011;45058;55.772;38.224;2023-10-31T14:02:01;241.15;;;40.20;;
58240;SDS011;45058;55.772;38.224;2023-10-31T14:04:27;278.65;;;40.50;;
58240;SDS011;45058;55.772;38.224;2023-10-31T14:06:54;197.05;;;38.45;;
58240;SDS011;45058;55.772;38.224;2023-10-31T14:09:20;263.08;;;40.20;;